createdAt,value
2022-07-26T00:02:58.948Z,100342.63
2022-07-26T00:07:02.143Z,100333.50
2022-07-26T00:11:07.239Z,100344.31
2022-07-26T00:15:12.656Z,100355.63
2022-07-26T00:19:15.753Z,100342.03
2022-07-26T00:23:19.520Z,100346.38
2022-07-26T00:27:22.621Z,100343.56
2022-07-26T00:31:27.097Z,100334.69
2022-07-26T00:35:30.130Z,100325.22
2022-07-26T00:39:33.276Z,100339.06
2022-07-26T00:43:36.833Z,100330.78
2022-07-26T00:47:41.835Z,100331.25
2022-07-26T00:51:46.577Z,100338.41
2022-07-26T00:55:50.172Z,100340.78
2022-07-26T00:59:53.495Z,100347.09
2022-07-26T01:03:58.291Z,100337.59
2022-07-26T01:08:01.351Z,100336.19
2022-07-26T01:12:04.768Z,100341.44
2022-07-26T01:16:08.374Z,100346.13
2022-07-26T01:20:14.420Z,100354.63
2022-07-26T01:24:19.559Z,100362.47
2022-07-26T01:28:22.597Z,100346.72
2022-07-26T01:32:25.623Z,100340.38
2022-07-26T01:36:28.724Z,100345.63
2022-07-26T01:40:33.410Z,100340.09
2022-07-26T01:44:37.312Z,100348.91
2022-07-26T01:48:41.213Z,100351.41
2022-07-26T01:52:44.329Z,100355.78
2022-07-26T01:56:48.799Z,100359.75
2022-07-26T02:00:51.919Z,100360.56
2022-07-26T02:05:01.495Z,100363.59
2022-07-26T02:09:06.458Z,100353.91
2022-07-26T02:13:16.061Z,100364.34
2022-07-26T02:17:19.801Z,100369.38
2022-07-26T02:21:22.920Z,100368.13
2022-07-26T02:25:26.222Z,100360.25
2022-07-26T02:29:31.760Z,100373.09
2022-07-26T02:33:34.820Z,100383.59
2022-07-26T02:37:43.547Z,100376.78
2022-07-26T02:41:46.903Z,100382.16
2022-07-26T02:46:01.237Z,100382.22
2022-07-26T02:50:05.574Z,100383.31
2022-07-26T02:54:08.952Z,100389.56
2022-07-26T02:58:12.341Z,100400.25
2022-07-26T03:02:17.194Z,100411.31
2022-07-26T03:06:21.149Z,100407.38
2022-07-26T03:10:24.216Z,100410.66
2022-07-26T03:14:29.814Z,100415.38
2022-07-26T03:18:34.480Z,100416.19
2022-07-26T03:22:37.459Z,100420.59
2022-07-26T03:26:40.576Z,100421.69
2022-07-26T03:30:43.750Z,100425.56
2022-07-26T03:34:48.269Z,100426.63
2022-07-26T03:38:51.355Z,100424.13
2022-07-26T03:42:54.465Z,100433.50
2022-07-26T03:46:57.715Z,100431.59
2022-07-26T03:51:02.636Z,100433.78
2022-07-26T03:55:26.630Z,100439.03
2022-07-26T03:59:29.710Z,100439.38
2022-07-26T04:03:32.743Z,100450.66
2022-07-26T04:07:43.183Z,100431.59
2022-07-26T04:11:55.651Z,100439.38
2022-07-26T04:15:58.789Z,100444.94
2022-07-26T04:20:01.841Z,100452.69
2022-07-26T04:24:07.217Z,100448.84
2022-07-26T04:28:10.856Z,100457.66
2022-07-26T04:32:13.972Z,100462.19
2022-07-26T04:36:17.124Z,100466.63
2022-07-26T04:40:23.652Z,100460.56
2022-07-26T04:44:26.931Z,100462.59
2022-07-26T04:48:30.289Z,100464.25
2022-07-26T04:52:33.965Z,100469.84
2022-07-26T04:56:38.622Z,100474.00
2022-07-26T05:01:09.390Z,100471.81
2022-07-26T05:05:05.302Z,100471.81
2022-07-26T05:09:09.036Z,100472.16
2022-07-26T05:13:13.522Z,100480.28
2022-07-26T05:17:17.840Z,100488.06
2022-07-26T05:21:21.129Z,100479.19
2022-07-26T05:25:24.345Z,100474.81
2022-07-26T05:29:29.039Z,100476.47
2022-07-26T05:33:32.296Z,100490.03
2022-07-26T05:37:35.879Z,100473.19
2022-07-26T05:41:38.974Z,100477.06
2022-07-26T05:45:43.684Z,100474.59
2022-07-26T05:49:46.717Z,100487.69
2022-07-26T05:53:49.781Z,100489.34
2022-07-26T05:57:52.851Z,100491.03
2022-07-26T06:01:57.413Z,100498.22
2022-07-26T06:06:00.894Z,100487.00
2022-07-26T06:10:04.666Z,100498.72
2022-07-26T06:14:07.998Z,100509.66
2022-07-26T06:18:12.741Z,100507.41
2022-07-26T06:22:15.877Z,100504.72
2022-07-26T06:26:18.953Z,100515.84
2022-07-26T06:30:22.232Z,100517.78
2022-07-26T06:34:26.766Z,100511.31
2022-07-26T06:38:29.943Z,100527.41
2022-07-26T06:42:33.299Z,100540.16
2022-07-26T06:46:36.627Z,100548.09
2022-07-26T06:50:41.262Z,100546.28
2022-07-26T06:54:44.663Z,100548.19
2022-07-26T06:58:48.072Z,100553.19
2022-07-26T07:02:51.076Z,100536.59
2022-07-26T07:06:55.619Z,100553.69
2022-07-26T07:11:00.559Z,100541.41
2022-07-26T07:15:05.716Z,100554.34
2022-07-26T07:19:08.783Z,100549.91
2022-07-26T07:23:15.567Z,100547.63
2022-07-26T07:27:19.701Z,100566.53
2022-07-26T07:31:30.208Z,100562.06
2022-07-26T07:35:33.822Z,100559.28
2022-07-26T07:39:38.459Z,100558.09
2022-07-26T07:43:41.982Z,100562.09
2022-07-26T07:47:45.068Z,100565.25
2022-07-26T07:51:48.299Z,100557.25
2022-07-26T07:55:55.220Z,100562.25
2022-07-26T07:59:58.525Z,100551.13
2022-07-26T08:04:01.841Z,100559.22
2022-07-26T08:08:05.235Z,100553.34
2022-07-26T08:12:12.932Z,100555.59
2022-07-26T08:16:16.287Z,100566.72
2022-07-26T08:20:19.529Z,100567.78
2022-07-26T08:24:26.012Z,100570.06
2022-07-26T08:28:47.890Z,100571.16
2022-07-26T08:32:51.383Z,100572.88
2022-07-26T08:37:15.982Z,100556.63
2022-07-26T08:41:18.616Z,100556.53
2022-07-26T08:45:27.919Z,100545.81
2022-07-26T08:49:31.083Z,100558.84
2022-07-26T08:53:35.125Z,100552.75
2022-07-26T08:57:38.222Z,100554.09
2022-07-26T09:01:54.454Z,100550.06
2022-07-26T09:06:00.724Z,100562.59
2022-07-26T09:10:07.616Z,100558.84
2022-07-26T09:14:10.823Z,100565.84
2022-07-26T09:18:28.765Z,100581.19
2022-07-26T09:22:31.880Z,100578.13
2022-07-26T09:26:35.031Z,100581.03
2022-07-26T09:30:38.257Z,100580.31
2022-07-26T09:34:51.965Z,100571.16
2022-07-26T09:38:58.630Z,100582.31
2022-07-26T09:43:03.638Z,100584.56
2022-07-26T09:47:06.928Z,100599.81
2022-07-26T09:51:12.214Z,100604.16
2022-07-26T09:55:16.670Z,100608.97
2022-07-26T09:59:21.921Z,100605.72
2022-07-26T10:03:24.997Z,100600.63
2022-07-26T10:07:29.640Z,100602.16
2022-07-26T10:11:39.901Z,100599.81
2022-07-26T10:15:46.705Z,100589.88
2022-07-26T10:19:50.296Z,100588.91
2022-07-26T10:23:58.040Z,100600.34
2022-07-26T10:28:01.187Z,100602.84
2022-07-26T10:32:15.832Z,100619.31
2022-07-26T10:36:31.105Z,100619.06
2022-07-26T10:40:35.942Z,100614.06
2022-07-26T10:44:41.970Z,100605.69
2022-07-26T10:48:56.953Z,100603.41
2022-07-26T10:53:00.381Z,100600.31
2022-07-26T10:57:05.039Z,100594.03
2022-07-26T11:01:08.257Z,100594.19
2022-07-26T11:05:16.542Z,100597.94
2022-07-26T11:09:21.167Z,100600.22
2022-07-26T11:13:25.934Z,100614.66
2022-07-26T11:17:30.809Z,100621.03
2022-07-26T11:21:33.923Z,100614.28
2022-07-26T11:25:37.025Z,100622.09
2022-07-26T11:29:42.561Z,100624.63
2022-07-26T11:33:53.084Z,100625.09
2022-07-26T11:38:07.790Z,100637.88
2022-07-26T11:42:16.291Z,100629.00
2022-07-26T11:46:22.394Z,100645.59
2022-07-26T11:50:25.649Z,100646.34
2022-07-26T11:54:30.743Z,100647.38
2022-07-26T11:58:34.337Z,100633.44
2022-07-26T12:02:38.994Z,100617.47
2022-07-26T12:06:42.143Z,100627.00
2022-07-26T12:10:45.287Z,100622.13
2022-07-26T12:14:57.649Z,100613.41
2022-07-26T12:19:02.174Z,100620.53
2022-07-26T12:23:06.143Z,100626.84
2022-07-26T12:27:11.962Z,100620.19
2022-07-26T12:31:34.331Z,100616.84
2022-07-26T12:35:39.313Z,100604.69
2022-07-26T12:39:43.155Z,100609.06
2022-07-26T12:43:49.290Z,100613.00
2022-07-26T12:47:54.659Z,100617.84
2022-07-26T12:51:59.068Z,100627.31
2022-07-26T12:56:02.309Z,100629.31
2022-07-26T13:00:07.410Z,100624.22
2022-07-26T13:04:11.364Z,100599.16
2022-07-26T13:08:46.331Z,100610.78
2022-07-26T13:12:51.048Z,100605.84
2022-07-26T13:16:55.350Z,100617.16
2022-07-26T13:21:35.149Z,100608.78
2022-07-26T13:25:47.361Z,100623.03
2022-07-26T13:29:57.453Z,100626.78
2022-07-26T13:34:02.157Z,100614.97
2022-07-26T13:38:06.098Z,100626.13
2022-07-26T13:42:14.566Z,100620.34
2022-07-26T13:46:20.390Z,100621.94
2022-07-26T13:50:29.434Z,100625.84
2022-07-26T13:54:39.293Z,100635.88
2022-07-26T13:58:44.576Z,100641.22
2022-07-26T14:02:48.257Z,100646.53
2022-07-26T14:06:55.516Z,100661.41
2022-07-26T14:11:00.944Z,100658.63
2022-07-26T14:15:12.992Z,100656.69
2022-07-26T14:19:21.534Z,100661.25
2022-07-26T14:23:25.908Z,100666.75
2022-07-26T14:27:30.040Z,100666.31
2022-07-26T14:31:34.959Z,100672.31
2022-07-26T14:35:37.997Z,100676.34
2022-07-26T14:39:41.340Z,100674.41
2022-07-26T14:43:45.399Z,100673.22
2022-07-26T14:47:50.082Z,100668.28
2022-07-26T14:51:54.169Z,100675.31
2022-07-26T14:55:57.388Z,100677.19
2022-07-26T15:00:00.448Z,100683.72
2022-07-26T15:04:05.514Z,100675.56
2022-07-26T15:08:08.622Z,100678.91
2022-07-26T15:12:11.766Z,100680.41
2022-07-26T15:16:15.099Z,100674.97
2022-07-26T15:20:19.717Z,100677.38
2022-07-26T15:24:24.446Z,100680.13
2022-07-26T15:28:27.621Z,100676.25
2022-07-26T15:32:30.897Z,100691.50
2022-07-26T15:36:35.910Z,100686.72
2022-07-26T15:40:39.585Z,100682.97
2022-07-26T15:44:42.674Z,100685.19
2022-07-26T15:48:47.077Z,100677.47
2022-07-26T15:52:52.297Z,100683.03
2022-07-26T15:56:55.668Z,100680.25
2022-07-26T16:00:58.792Z,100686.91
2022-07-26T16:05:02.241Z,100682.50
2022-07-26T16:09:22.923Z,100691.78
2022-07-26T16:13:26.171Z,100683.03
2022-07-26T16:17:29.390Z,100678.03
2022-07-26T16:21:33.360Z,100683.59
2022-07-26T16:25:38.038Z,100686.94
2022-07-26T16:29:41.146Z,100684.97
2022-07-26T16:33:46.086Z,100694.16
2022-07-26T16:37:50.335Z,100684.75
2022-07-26T16:41:54.904Z,100693.88
2022-07-26T16:45:58.092Z,100703.03
2022-07-26T16:50:01.184Z,100701.41
2022-07-26T16:54:04.698Z,100705.03
2022-07-26T16:58:09.235Z,100705.06
2022-07-26T17:02:12.634Z,100706.50
2022-07-26T17:06:15.872Z,100704.16
2022-07-26T17:10:20.702Z,100716.69
2022-07-26T17:14:25.231Z,100710.50
2022-07-26T17:18:28.566Z,100720.13
2022-07-26T17:22:31.787Z,100729.59
2022-07-26T17:26:36.372Z,100729.41
2022-07-26T17:30:41.819Z,100728.63
2022-07-26T17:34:44.948Z,100728.97
2022-07-26T17:38:48.484Z,100715.50
2022-07-26T17:42:52.318Z,100722.47
2022-07-26T17:46:58.722Z,100717.91
2022-07-26T17:51:01.967Z,100738.41
2022-07-26T17:55:05.552Z,100741.44
2022-07-26T17:59:09.071Z,100745.16
2022-07-26T18:03:13.637Z,100759.56
2022-07-26T18:07:16.686Z,100744.34
2022-07-26T18:11:19.795Z,100750.50
2022-07-26T18:15:23.138Z,100756.31
2022-07-26T18:19:27.663Z,100755.41
2022-07-26T18:23:30.742Z,100768.22
2022-07-26T18:27:33.878Z,100761.25
2022-07-26T18:31:37.035Z,100754.19
2022-07-26T18:35:41.998Z,100765.44
2022-07-26T18:39:45.215Z,100766.19
2022-07-26T18:43:48.301Z,100766.59
2022-07-26T18:47:51.383Z,100759.88
2022-07-26T18:51:59.862Z,100764.06
2022-07-26T18:56:07.622Z,100752.03
2022-07-26T19:00:12.993Z,100756.88
2022-07-26T19:04:17.120Z,100759.00
2022-07-26T19:08:23.178Z,100754.47
2022-07-26T19:12:26.395Z,100758.91
2022-07-26T19:16:29.690Z,100774.84
2022-07-26T19:20:34.007Z,100780.34
2022-07-26T19:24:39.941Z,100783.13
2022-07-26T19:28:43.128Z,100795.78
2022-07-26T19:32:46.497Z,100798.88
2022-07-26T19:36:51.103Z,100803.41
2022-07-26T19:40:55.863Z,100807.00
2022-07-26T19:44:59.276Z,100808.16
2022-07-26T19:49:04.982Z,100813.13
2022-07-26T19:53:08.128Z,100822.75
2022-07-26T19:57:12.568Z,100821.72
2022-07-26T20:01:15.897Z,100838.66
2022-07-26T20:05:19.028Z,100843.53
2022-07-26T20:09:22.179Z,100834.53
2022-07-26T20:13:26.585Z,100843.59
2022-07-26T20:17:33.468Z,100854.06
2022-07-26T20:21:36.587Z,100860.88
2022-07-26T20:25:39.748Z,100864.66
2022-07-26T20:29:44.323Z,100867.44
2022-07-26T20:33:47.466Z,100863.22
2022-07-26T20:37:50.627Z,100868.03
2022-07-26T20:41:53.736Z,100868.66
2022-07-26T20:45:59.922Z,100866.16
2022-07-26T20:50:05.382Z,100873.50
2022-07-26T20:54:08.656Z,100877.84
2022-07-26T20:58:11.786Z,100887.72
2022-07-26T21:02:16.640Z,100882.31
2022-07-26T21:06:19.864Z,100891.34
2022-07-26T21:10:23.024Z,100902.91
2022-07-26T21:14:26.290Z,100884.28
2022-07-26T21:18:31.357Z,100876.84
2022-07-26T21:22:34.594Z,100856.50
2022-07-26T21:26:37.781Z,100848.09
2022-07-26T21:30:40.942Z,100842.09
2022-07-26T21:34:45.458Z,100855.69
2022-07-26T21:38:48.701Z,100853.66
2022-07-26T21:42:51.835Z,100857.28
2022-07-26T21:46:55.373Z,100857.66
2022-07-26T21:50:59.903Z,100859.38
2022-07-26T21:55:02.923Z,100857.31
2022-07-26T21:59:05.962Z,100866.44
2022-07-26T22:03:10.235Z,100872.44
2022-07-26T22:07:14.710Z,100867.53
2022-07-26T22:11:17.929Z,100874.47
2022-07-26T22:15:22.165Z,100873.31
2022-07-26T22:19:25.216Z,100866.31
2022-07-26T22:23:31.010Z,100873.88
2022-07-26T22:27:34.209Z,100869.34
2022-07-26T22:31:37.385Z,100867.78
2022-07-26T22:35:40.512Z,100875.84
2022-07-26T22:39:45.216Z,100870.31
2022-07-26T22:43:49.419Z,100878.47
2022-07-26T22:47:56.911Z,100874.38
2022-07-26T22:51:59.967Z,100878.69
2022-07-26T22:56:04.356Z,100887.19
2022-07-26T23:00:09.806Z,100887.06
2022-07-26T23:04:12.865Z,100894.88
2022-07-26T23:08:45.886Z,100888.06
2022-07-26T23:12:41.494Z,100889.00
2022-07-26T23:16:45.468Z,100882.28
2022-07-26T23:20:48.537Z,100889.97
2022-07-26T23:24:51.729Z,100887.06
2022-07-26T23:28:56.192Z,100887.41
2022-07-26T23:32:59.857Z,100883.56
2022-07-26T23:37:03.145Z,100881.16
2022-07-26T23:41:06.175Z,100886.94
2022-07-26T23:45:12.062Z,100889.91
2022-07-26T23:49:15.624Z,100892.53
2022-07-26T23:53:19.234Z,100898.19
2022-07-26T23:57:29.938Z,100896.63
